createdAt,value
2023-05-03T00:01:26.153Z,102177.06
2023-05-03T00:06:27.918Z,102179.66
2023-05-03T00:11:29.893Z,102177.28
2023-05-03T00:16:33.486Z,102173.47
2023-05-03T00:21:35.351Z,102183.00
2023-05-03T00:26:37.905Z,102182.41
2023-05-03T00:31:43.086Z,102182.00
2023-05-03T00:36:45.567Z,102185.44
2023-05-03T00:41:47.599Z,102180.84
2023-05-03T00:46:51.113Z,102182.22
2023-05-03T00:51:53.912Z,102180.56
2023-05-03T00:56:57.108Z,102187.22
2023-05-03T01:02:00.916Z,102185.88
2023-05-03T01:07:09.059Z,102182.97
2023-05-03T01:12:21.270Z,102180.25
2023-05-03T01:17:29.560Z,102181.38
2023-05-03T01:22:37.800Z,102192.63
2023-05-03T01:27:42.077Z,102189.69
2023-05-03T01:32:52.838Z,102189.34
2023-05-03T01:37:57.085Z,102191.78
2023-05-03T01:43:01.470Z,102192.47
2023-05-03T01:48:09.953Z,102187.38
2023-05-03T01:53:12.335Z,102188.91
2023-05-03T01:58:15.853Z,102187.28
2023-05-03T02:03:17.825Z,102185.78
2023-05-03T02:08:19.882Z,102192.53
2023-05-03T02:13:23.732Z,102198.19
2023-05-03T02:18:25.443Z,102205.53
2023-05-03T02:23:27.628Z,102207.09
2023-05-03T02:28:31.594Z,102211.25
2023-05-03T02:33:33.584Z,102214.72
2023-05-03T02:38:35.707Z,102213.38
2023-05-03T02:43:39.307Z,102218.13
2023-05-03T02:48:41.780Z,102215.75
2023-05-03T02:53:43.837Z,102229.56
2023-05-03T02:58:47.228Z,102218.69
2023-05-03T03:03:49.373Z,102238.34
2023-05-03T03:08:51.472Z,102242.22
2023-05-03T03:13:54.562Z,102241.88
2023-05-03T03:18:56.570Z,102243.47
2023-05-03T03:23:58.644Z,102244.97
2023-05-03T03:29:02.409Z,102249.97
2023-05-03T03:34:04.579Z,102254.88
2023-05-03T03:39:06.674Z,102250.88
2023-05-03T03:44:09.863Z,102262.03
2023-05-03T03:49:11.961Z,102257.81
2023-05-03T03:54:14.177Z,102268.13
2023-05-03T03:59:17.428Z,102264.56
2023-05-03T04:04:19.613Z,102267.69
2023-05-03T04:09:21.330Z,102273.63
2023-05-03T04:14:24.683Z,102283.66
2023-05-03T04:19:26.778Z,102282.94
2023-05-03T04:24:28.953Z,102301.91
2023-05-03T04:29:32.588Z,102302.44
2023-05-03T04:34:34.550Z,102303.16
2023-05-03T04:39:36.225Z,102311.06
2023-05-03T04:44:39.558Z,102305.06
2023-05-03T04:49:41.662Z,102311.47
2023-05-03T04:54:43.693Z,102318.59
2023-05-03T04:59:47.342Z,102321.84
2023-05-03T05:04:49.534Z,102320.41
2023-05-03T05:09:52.125Z,102327.50
2023-05-03T05:14:55.581Z,102327.69
2023-05-03T05:19:57.651Z,102312.34
2023-05-03T05:24:59.419Z,102327.16
2023-05-03T05:30:03.625Z,102332.91
2023-05-03T05:35:06.188Z,102342.31
2023-05-03T05:40:09.255Z,102337.28
2023-05-03T05:45:12.936Z,102348.66
2023-05-03T05:50:18.293Z,102346.38
2023-05-03T05:55:21.051Z,102355.50
2023-05-03T06:00:24.847Z,102353.59
2023-05-03T06:05:27.234Z,102354.34
2023-05-03T06:10:29.352Z,102358.63
2023-05-03T06:15:32.785Z,102361.16
2023-05-03T06:20:34.949Z,102361.28
2023-05-03T06:25:36.920Z,102366.16
2023-05-03T06:30:41.312Z,102368.16
2023-05-03T06:35:43.661Z,102375.34
2023-05-03T06:40:45.863Z,102377.97
2023-05-03T06:45:51.749Z,102375.91
2023-05-03T06:50:54.536Z,102371.84
2023-05-03T06:55:56.679Z,102374.44
2023-05-03T07:01:00.231Z,102373.44
2023-05-03T07:06:02.782Z,102363.47
2023-05-03T07:11:05.014Z,102367.84
2023-05-03T07:16:08.682Z,102380.88
2023-05-03T07:21:10.833Z,102383.44
2023-05-03T07:26:13.183Z,102375.47
2023-05-03T07:31:16.670Z,102376.78
2023-05-03T07:36:18.682Z,102369.34
2023-05-03T07:41:20.844Z,102366.50
2023-05-03T07:46:24.283Z,102364.97
2023-05-03T07:51:26.547Z,102355.16
2023-05-03T07:56:28.404Z,102359.00
2023-05-03T08:01:31.868Z,102356.59
2023-05-03T08:06:34.363Z,102364.13
2023-05-03T08:11:36.449Z,102358.88
2023-05-03T08:16:40.202Z,102363.94
2023-05-03T08:21:42.572Z,102360.47
2023-05-03T08:26:45.357Z,102348.16
2023-05-03T08:31:49.213Z,102354.16
2023-05-03T08:36:52.115Z,102351.81
2023-05-03T08:41:54.559Z,102359.19
2023-05-03T08:46:59.837Z,102362.75
2023-05-03T08:52:02.934Z,102366.63
2023-05-03T08:57:10.658Z,102364.81
2023-05-03T09:02:15.378Z,102366.09
2023-05-03T09:07:17.560Z,102374.50
2023-05-03T09:12:35.437Z,102366.25
2023-05-03T09:17:39.452Z,102374.25
2023-05-03T09:22:51.296Z,102363.84
2023-05-03T09:28:01.658Z,102367.00
2023-05-03T09:33:05.648Z,102367.00
2023-05-03T09:38:07.827Z,102367.72
2023-05-03T09:43:11.273Z,102369.47
2023-05-03T09:48:16.536Z,102360.38
2023-05-03T09:53:21.764Z,102368.75
2023-05-03T09:58:25.409Z,102361.53
2023-05-03T10:03:35.039Z,102364.75
2023-05-03T10:08:41.196Z,102367.44
2023-05-03T10:13:43.355Z,102371.38
2023-05-03T10:18:54.650Z,102363.91
2023-05-03T10:24:13.179Z,102358.78
2023-05-03T10:29:51.102Z,102365.69
2023-05-03T10:35:00.004Z,102364.28
2023-05-03T10:40:11.188Z,102352.47
2023-05-03T10:45:25.827Z,102344.25
2023-05-03T10:50:30.059Z,102347.75
2023-05-03T10:55:32.658Z,102337.00
2023-05-03T11:00:38.554Z,102334.56
2023-05-03T11:05:42.546Z,102343.84
2023-05-03T11:10:45.689Z,102329.16
2023-05-03T11:15:48.408Z,102330.25
2023-05-03T11:20:52.551Z,102328.72
2023-05-03T11:25:55.321Z,102330.09
2023-05-03T11:30:57.437Z,102317.31
2023-05-03T11:36:01.362Z,102325.91
2023-05-03T11:41:12.739Z,102321.13
2023-05-03T11:46:18.774Z,102314.31
2023-05-03T11:51:24.328Z,102306.97
2023-05-03T11:56:26.152Z,102306.41
2023-05-03T12:01:29.770Z,102302.56
2023-05-03T12:06:35.781Z,102298.72
2023-05-03T12:11:44.137Z,102308.81
2023-05-03T12:16:50.293Z,102305.47
2023-05-03T12:22:13.309Z,102293.69
2023-05-03T12:27:19.370Z,102289.28
2023-05-03T12:32:23.173Z,102291.00
2023-05-03T12:37:28.738Z,102283.59
2023-05-03T12:42:33.832Z,102285.03
2023-05-03T12:47:43.856Z,102296.34
2023-05-03T12:52:52.402Z,102279.84
2023-05-03T12:58:10.261Z,102289.41
2023-05-03T13:03:20.578Z,102280.34
2023-05-03T13:08:33.385Z,102273.94
2023-05-03T13:13:37.735Z,102260.81
2023-05-03T13:18:39.787Z,102262.22
2023-05-03T13:23:43.342Z,102259.00
2023-05-03T13:28:45.525Z,102248.47
2023-05-03T13:33:48.006Z,102244.94
2023-05-03T13:38:51.918Z,102234.06
2023-05-03T13:43:54.036Z,102234.97
2023-05-03T13:48:56.891Z,102217.00
2023-05-03T13:54:02.128Z,102207.13
2023-05-03T13:59:07.435Z,102210.53
2023-05-03T14:04:09.797Z,102201.72
2023-05-03T14:09:13.996Z,102207.38
2023-05-03T14:14:16.233Z,102194.00
2023-05-03T14:19:18.395Z,102196.41
2023-05-03T14:24:21.891Z,102193.53
2023-05-03T14:29:24.113Z,102193.81
2023-05-03T14:34:26.200Z,102189.56
2023-05-03T14:39:29.889Z,102187.16
2023-05-03T14:44:32.462Z,102181.38
2023-05-03T14:49:34.944Z,102182.09
2023-05-03T14:54:38.649Z,102180.44
2023-05-03T14:59:40.937Z,102169.94
2023-05-03T15:04:42.719Z,102181.84
2023-05-03T15:09:46.374Z,102178.91
2023-05-03T15:14:48.586Z,102175.78
2023-05-03T15:19:50.913Z,102182.44
2023-05-03T15:24:54.724Z,102176.88
2023-05-03T15:29:56.857Z,102173.81
2023-05-03T15:34:59.788Z,102162.91
2023-05-03T15:40:04.336Z,102169.50
2023-05-03T15:45:08.261Z,102165.59
2023-05-03T15:50:11.277Z,102169.56
2023-05-03T15:55:15.072Z,102157.59
2023-05-03T16:00:17.473Z,102150.72
2023-05-03T16:05:19.917Z,102151.41
2023-05-03T16:10:25.044Z,102152.88
2023-05-03T16:15:27.263Z,102143.03
2023-05-03T16:20:29.280Z,102140.25
2023-05-03T16:25:32.840Z,102132.19
2023-05-03T16:30:35.459Z,102143.56
2023-05-03T16:35:37.772Z,102137.28
2023-05-03T16:40:41.131Z,102142.75
2023-05-03T16:45:43.112Z,102136.16
2023-05-03T16:50:45.086Z,102136.78
2023-05-03T16:55:48.719Z,102134.75
2023-05-03T17:00:51.276Z,102136.81
2023-05-03T17:05:53.066Z,102136.00
2023-05-03T17:10:56.643Z,102133.72
2023-05-03T17:15:58.678Z,102132.66
2023-05-03T17:21:01.133Z,102133.94
2023-05-03T17:26:05.881Z,102136.84
2023-05-03T17:31:07.688Z,102137.94
2023-05-03T17:36:09.949Z,102132.94
2023-05-03T17:41:13.673Z,102132.13
2023-05-03T17:46:15.419Z,102131.41
2023-05-03T17:51:17.287Z,102132.34
2023-05-03T17:56:20.332Z,102130.78
2023-05-03T18:01:22.807Z,102141.53
2023-05-03T18:06:24.498Z,102136.28
2023-05-03T18:11:27.543Z,102134.53
2023-05-03T18:16:29.400Z,102138.09
2023-05-03T18:21:31.185Z,102143.44
2023-05-03T18:26:34.328Z,102139.00
2023-05-03T18:31:36.094Z,102136.28
2023-05-03T18:36:38.355Z,102145.09
2023-05-03T18:41:41.672Z,102143.31
2023-05-03T18:46:43.708Z,102145.94
2023-05-03T18:51:45.640Z,102149.47
2023-05-03T18:56:48.777Z,102157.25
2023-05-03T19:01:50.478Z,102151.78
2023-05-03T19:06:52.582Z,102155.19
2023-05-03T19:11:55.682Z,102162.94
2023-05-03T19:16:58.022Z,102168.06
2023-05-03T19:22:00.330Z,102171.16
2023-05-03T19:27:05.700Z,102171.59
2023-05-03T19:32:08.633Z,102171.28
2023-05-03T19:37:10.765Z,102159.44
2023-05-03T19:42:14.632Z,102159.94
2023-05-03T19:47:16.343Z,102147.13
2023-05-03T19:52:18.512Z,102152.28
2023-05-03T19:57:21.701Z,102159.13
2023-05-03T20:02:25.141Z,102158.06
2023-05-03T20:07:27.455Z,102156.88
2023-05-03T20:12:30.856Z,102149.44
2023-05-03T20:17:33.266Z,102153.72
2023-05-03T20:22:35.125Z,102159.56
2023-05-03T20:27:38.537Z,102157.97
2023-05-03T20:32:41.372Z,102159.59
2023-05-03T20:37:43.296Z,102160.00
2023-05-03T20:42:46.766Z,102157.16
2023-05-03T20:47:48.745Z,102154.06
2023-05-03T20:52:50.900Z,102151.81
2023-05-03T20:57:54.308Z,102154.50
2023-05-03T21:02:56.107Z,102152.22
2023-05-03T21:07:58.498Z,102151.19
2023-05-03T21:13:02.406Z,102150.22
2023-05-03T21:18:04.846Z,102150.66
2023-05-03T21:23:07.308Z,102152.16
2023-05-03T21:28:10.926Z,102142.22
2023-05-03T21:33:12.917Z,102143.78
2023-05-03T21:38:15.599Z,102149.78
2023-05-03T21:43:19.096Z,102149.31
2023-05-03T21:48:21.116Z,102156.16
2023-05-03T21:53:23.176Z,102149.09
2023-05-03T21:58:26.824Z,102151.22
2023-05-03T22:03:28.728Z,102143.91
2023-05-03T22:08:30.880Z,102146.19
2023-05-03T22:13:34.999Z,102152.97
2023-05-03T22:18:37.460Z,102140.09
2023-05-03T22:23:39.609Z,102124.84
2023-05-03T22:28:43.073Z,102136.78
2023-05-03T22:33:45.398Z,102124.31
2023-05-03T22:38:47.780Z,102135.38
2023-05-03T22:43:51.548Z,102137.28
2023-05-03T22:48:53.714Z,102131.91
2023-05-03T22:53:55.644Z,102128.06
2023-05-03T22:58:59.155Z,102123.50
2023-05-03T23:04:01.318Z,102121.69
2023-05-03T23:09:03.512Z,102128.25
2023-05-03T23:14:06.967Z,102126.81
2023-05-03T23:19:08.971Z,102124.66
2023-05-03T23:24:11.007Z,102130.47
2023-05-03T23:29:14.395Z,102130.47
2023-05-03T23:34:16.893Z,102131.56
2023-05-03T23:39:18.939Z,102126.97
2023-05-03T23:44:22.443Z,102124.34
2023-05-03T23:49:24.474Z,102124.94
2023-05-03T23:54:26.373Z,102123.28
2023-05-03T23:59:29.763Z,102124.59
